sensor_id;sensor_type;location;lat;lon;timestamp;P1;durP1;ratioP1;P2;durP2;ratioP2
17592;SDS011;8915;51.760;14.300;2022-12-18T00:02:03;35.87;;;12.07;;
17592;SDS011;8915;51.760;14.300;2022-12-18T00:04:30;37.17;;;12.00;;
17592;SDS011;8915;51.760;14.300;2022-12-18T00:06:56;32.13;;;10.80;;
17592;SDS011;8915;51.760;14.300;2022-12-18T00:09:22;29.83;;;10.07;;
17592;SDS011;8915;51.760;14.300;2022-12-18T00:11:49;26.33;;;10.73;;
17592;SDS011;8915;51.760;14.300;2022-12-18T00:14:15;27.70;;;10.30;;
17592;SDS011;8915;51.760;14.300;2022-12-18T00:16:44;30.50;;;11.33;;
17592;SDS011;8915;51.760;14.300;2022-12-18T00:19:11;32.77;;;12.10;;
17592;SDS011;8915;51.760;14.300;2022-12-18T00:21:38;31.93;;;12.93;;
17592;SDS011;8915;51.760;14.300;2022-12-18T00:24:05;28.17;;;10.97;;
17592;SDS011;8915;51.760;14.300;2022-12-18T00:26:32;33.53;;;12.90;;
17592;SDS011;8915;51.760;14.300;2022-12-18T00:29:01;34.13;;;11.30;;
17592;SDS011;8915;51.760;14.300;2022-12-18T00:31:29;31.47;;;12.17;;
17592;SDS011;8915;51.760;14.300;2022-12-18T00:33:58;32.83;;;12.20;;
17592;SDS011;8915;51.760;14.300;2022-12-18T00:36:26;33.30;;;13.03;;
17592;SDS011;8915;51.760;14.300;2022-12-18T00:38:56;41.10;;;13.33;;
17592;SDS011;8915;51.760;14.300;2022-12-18T00:41:24;27.63;;;11.80;;
17592;SDS011;8915;51.760;14.300;2022-12-18T00:44:10;35.83;;;11.70;;
17592;SDS011;8915;51.760;14.300;2022-12-18T00:46:38;35.50;;;13.00;;
17592;SDS011;8915;51.760;14.300;2022-12-18T00:49:05;36.90;;;14.53;;
17592;SDS011;8915;51.760;14.300;2022-12-18T00:51:32;37.30;;;12.47;;
17592;SDS011;8915;51.760;14.300;2022-12-18T00:53:58;38.53;;;12.17;;
17592;SDS011;8915;51.760;14.300;2022-12-18T00:56:24;37.67;;;13.53;;
17592;SDS011;8915;51.760;14.300;2022-12-18T00:58:51;34.00;;;12.20;;
17592;SDS011;8915;51.760;14.300;2022-12-18T01:01:18;36.30;;;14.27;;
17592;SDS011;8915;51.760;14.300;2022-12-18T01:03:44;42.57;;;12.93;;
17592;SDS011;8915;51.760;14.300;2022-12-18T01:06:13;35.97;;;12.33;;
17592;SDS011;8915;51.760;14.300;2022-12-18T01:08:41;32.80;;;11.13;;
17592;SDS011;8915;51.760;14.300;2022-12-18T01:11:12;29.30;;;10.83;;
17592;SDS011;8915;51.760;14.300;2022-12-18T01:13:40;33.50;;;11.13;;
17592;SDS011;8915;51.760;14.300;2022-12-18T01:16:06;27.57;;;10.67;;
17592;SDS011;8915;51.760;14.300;2022-12-18T01:18:33;31.50;;;11.00;;
17592;SDS011;8915;51.760;14.300;2022-12-18T01:21:02;32.73;;;11.17;;
17592;SDS011;8915;51.760;14.300;2022-12-18T01:23:33;33.03;;;11.13;;
17592;SDS011;8915;51.760;14.300;2022-12-18T01:26:06;29.00;;;11.17;;
17592;SDS011;8915;51.760;14.300;2022-12-18T01:28:34;30.30;;;10.53;;
17592;SDS011;8915;51.760;14.300;2022-12-18T01:31:13;32.63;;;9.93;;
17592;SDS011;8915;51.760;14.300;2022-12-18T01:33:42;32.23;;;10.90;;
17592;SDS011;8915;51.760;14.300;2022-12-18T01:36:14;25.00;;;10.20;;
17592;SDS011;8915;51.760;14.300;2022-12-18T01:38:43;37.10;;;11.33;;
17592;SDS011;8915;51.760;14.300;2022-12-18T01:41:09;26.90;;;10.30;;
17592;SDS011;8915;51.760;14.300;2022-12-18T01:43:43;29.83;;;9.90;;
17592;SDS011;8915;51.760;14.300;2022-12-18T01:46:11;25.33;;;8.27;;
17592;SDS011;8915;51.760;14.300;2022-12-18T01:48:38;25.10;;;9.40;;
17592;SDS011;8915;51.760;14.300;2022-12-18T01:51:05;24.43;;;8.57;;
17592;SDS011;8915;51.760;14.300;2022-12-18T01:53:34;21.80;;;8.50;;
17592;SDS011;8915;51.760;14.300;2022-12-18T01:56:04;17.87;;;9.27;;
17592;SDS011;8915;51.760;14.300;2022-12-18T01:58:32;21.63;;;9.47;;
17592;SDS011;8915;51.760;14.300;2022-12-18T02:01:06;23.10;;;8.20;;
17592;SDS011;8915;51.760;14.300;2022-12-18T02:03:32;22.27;;;7.57;;
17592;SDS011;8915;51.760;14.300;2022-12-18T02:06:00;16.90;;;7.90;;
17592;SDS011;8915;51.760;14.300;2022-12-18T02:08:33;23.30;;;7.90;;
17592;SDS011;8915;51.760;14.300;2022-12-18T02:11:08;18.43;;;8.10;;
17592;SDS011;8915;51.760;14.300;2022-12-18T02:13:43;23.70;;;8.87;;
17592;SDS011;8915;51.760;14.300;2022-12-18T02:16:19;18.97;;;7.50;;
17592;SDS011;8915;51.760;14.300;2022-12-18T02:18:51;15.70;;;6.17;;
17592;SDS011;8915;51.760;14.300;2022-12-18T02:21:25;17.23;;;7.70;;
17592;SDS011;8915;51.760;14.300;2022-12-18T02:24:05;20.90;;;7.33;;
17592;SDS011;8915;51.760;14.300;2022-12-18T02:26:45;18.10;;;7.83;;
17592;SDS011;8915;51.760;14.300;2022-12-18T02:29:20;17.57;;;7.83;;
17592;SDS011;8915;51.760;14.300;2022-12-18T02:31:53;16.20;;;8.67;;
17592;SDS011;8915;51.760;14.300;2022-12-18T02:34:24;17.93;;;8.43;;
17592;SDS011;8915;51.760;14.300;2022-12-18T02:36:55;17.20;;;7.50;;
17592;SDS011;8915;51.760;14.300;2022-12-18T02:39:25;19.90;;;8.13;;
17592;SDS011;8915;51.760;14.300;2022-12-18T02:42:01;18.00;;;6.87;;
17592;SDS011;8915;51.760;14.300;2022-12-18T02:44:33;19.57;;;8.23;;
17592;SDS011;8915;51.760;14.300;2022-12-18T02:46:59;19.70;;;7.73;;
17592;SDS011;8915;51.760;14.300;2022-12-18T02:49:28;18.53;;;8.63;;
17592;SDS011;8915;51.760;14.300;2022-12-18T02:52:13;14.53;;;7.00;;
17592;SDS011;8915;51.760;14.300;2022-12-18T02:54:51;17.10;;;7.90;;
17592;SDS011;8915;51.760;14.300;2022-12-18T02:57:30;17.53;;;8.50;;
17592;SDS011;8915;51.760;14.300;2022-12-18T03:00:03;21.47;;;7.90;;
17592;SDS011;8915;51.760;14.300;2022-12-18T03:02:34;22.43;;;9.47;;
17592;SDS011;8915;51.760;14.300;2022-12-18T03:05:07;22.97;;;9.13;;
17592;SDS011;8915;51.760;14.300;2022-12-18T03:07:42;22.90;;;9.50;;
17592;SDS011;8915;51.760;14.300;2022-12-18T03:10:17;22.83;;;9.20;;
17592;SDS011;8915;51.760;14.300;2022-12-18T03:12:52;23.10;;;8.53;;
17592;SDS011;8915;51.760;14.300;2022-12-18T03:15:24;21.63;;;9.37;;
17592;SDS011;8915;51.760;14.300;2022-12-18T03:18:04;18.13;;;8.60;;
17592;SDS011;8915;51.760;14.300;2022-12-18T03:20:36;19.77;;;7.60;;
17592;SDS011;8915;51.760;14.300;2022-12-18T03:23:11;26.27;;;9.30;;
17592;SDS011;8915;51.760;14.300;2022-12-18T03:25:45;26.20;;;9.90;;
17592;SDS011;8915;51.760;14.300;2022-12-18T03:28:15;26.67;;;9.60;;
17592;SDS011;8915;51.760;14.300;2022-12-18T03:30:48;20.17;;;8.90;;
17592;SDS011;8915;51.760;14.300;2022-12-18T03:33:19;28.87;;;10.53;;
17592;SDS011;8915;51.760;14.300;2022-12-18T03:35:52;21.73;;;8.67;;
17592;SDS011;8915;51.760;14.300;2022-12-18T03:38:18;24.40;;;10.00;;
17592;SDS011;8915;51.760;14.300;2022-12-18T03:40:51;26.80;;;9.30;;
17592;SDS011;8915;51.760;14.300;2022-12-18T03:43:28;20.80;;;9.40;;
17592;SDS011;8915;51.760;14.300;2022-12-18T03:46:02;31.00;;;12.10;;
17592;SDS011;8915;51.760;14.300;2022-12-18T03:48:35;22.77;;;9.70;;
17592;SDS011;8915;51.760;14.300;2022-12-18T03:51:10;19.17;;;8.47;;
17592;SDS011;8915;51.760;14.300;2022-12-18T03:53:44;27.53;;;11.13;;
17592;SDS011;8915;51.760;14.300;2022-12-18T03:56:20;28.43;;;10.37;;
17592;SDS011;8915;51.760;14.300;2022-12-18T03:58:51;31.70;;;9.57;;
17592;SDS011;8915;51.760;14.300;2022-12-18T04:01:24;35.70;;;11.43;;
17592;SDS011;8915;51.760;14.300;2022-12-18T04:03:56;26.33;;;10.03;;
17592;SDS011;8915;51.760;14.300;2022-12-18T04:06:25;24.03;;;10.20;;
17592;SDS011;8915;51.760;14.300;2022-12-18T04:08:52;19.80;;;9.60;;
17592;SDS011;8915;51.760;14.300;2022-12-18T04:11:21;26.60;;;9.53;;
17592;SDS011;8915;51.760;14.300;2022-12-18T04:13:48;18.03;;;7.97;;
17592;SDS011;8915;51.760;14.300;2022-12-18T04:16:21;20.83;;;8.57;;
17592;SDS011;8915;51.760;14.300;2022-12-18T04:18:51;29.30;;;9.77;;
17592;SDS011;8915;51.760;14.300;2022-12-18T04:21:19;21.40;;;8.80;;
17592;SDS011;8915;51.760;14.300;2022-12-18T04:23:47;25.83;;;8.73;;
17592;SDS011;8915;51.760;14.300;2022-12-18T04:26:13;22.73;;;9.03;;
17592;SDS011;8915;51.760;14.300;2022-12-18T04:28:49;19.07;;;7.90;;
17592;SDS011;8915;51.760;14.300;2022-12-18T04:31:16;28.80;;;9.67;;
17592;SDS011;8915;51.760;14.300;2022-12-18T04:33:43;27.73;;;9.30;;
17592;SDS011;8915;51.760;14.300;2022-12-18T04:36:10;29.60;;;10.13;;
17592;SDS011;8915;51.760;14.300;2022-12-18T04:38:38;20.40;;;9.83;;
17592;SDS011;8915;51.760;14.300;2022-12-18T04:41:09;22.17;;;8.90;;
17592;SDS011;8915;51.760;14.300;2022-12-18T04:43:36;21.63;;;8.70;;
17592;SDS011;8915;51.760;14.300;2022-12-18T04:46:03;25.63;;;9.50;;
17592;SDS011;8915;51.760;14.300;2022-12-18T04:48:29;22.77;;;8.97;;
17592;SDS011;8915;51.760;14.300;2022-12-18T04:50:57;19.60;;;8.73;;
17592;SDS011;8915;51.760;14.300;2022-12-18T04:53:24;27.43;;;8.60;;
17592;SDS011;8915;51.760;14.300;2022-12-18T04:55:50;27.60;;;10.13;;
17592;SDS011;8915;51.760;14.300;2022-12-18T04:58:16;26.17;;;9.50;;
17592;SDS011;8915;51.760;14.300;2022-12-18T05:00:43;26.80;;;10.67;;
17592;SDS011;8915;51.760;14.300;2022-12-18T05:03:09;23.03;;;9.97;;
17592;SDS011;8915;51.760;14.300;2022-12-18T05:05:36;24.20;;;9.20;;
17592;SDS011;8915;51.760;14.300;2022-12-18T05:08:03;25.97;;;9.20;;
17592;SDS011;8915;51.760;14.300;2022-12-18T05:10:30;27.30;;;10.20;;
17592;SDS011;8915;51.760;14.300;2022-12-18T05:12:56;23.07;;;10.13;;
17592;SDS011;8915;51.760;14.300;2022-12-18T05:15:26;29.47;;;10.73;;
17592;SDS011;8915;51.760;14.300;2022-12-18T05:17:53;21.77;;;9.17;;
17592;SDS011;8915;51.760;14.300;2022-12-18T05:20:20;25.83;;;9.30;;
17592;SDS011;8915;51.760;14.300;2022-12-18T05:22:46;24.47;;;10.23;;
17592;SDS011;8915;51.760;14.300;2022-12-18T05:25:14;34.17;;;10.33;;
17592;SDS011;8915;51.760;14.300;2022-12-18T05:27:40;28.80;;;9.67;;
17592;SDS011;8915;51.760;14.300;2022-12-18T05:30:07;22.20;;;10.57;;
17592;SDS011;8915;51.760;14.300;2022-12-18T05:32:34;29.80;;;10.60;;
17592;SDS011;8915;51.760;14.300;2022-12-18T05:35:01;30.67;;;11.33;;
17592;SDS011;8915;51.760;14.300;2022-12-18T05:37:28;27.40;;;10.97;;
17592;SDS011;8915;51.760;14.300;2022-12-18T05:39:54;26.90;;;13.70;;
17592;SDS011;8915;51.760;14.300;2022-12-18T05:42:22;27.13;;;10.87;;
17592;SDS011;8915;51.760;14.300;2022-12-18T05:44:48;27.47;;;10.93;;
17592;SDS011;8915;51.760;14.300;2022-12-18T05:47:15;24.17;;;12.07;;
17592;SDS011;8915;51.760;14.300;2022-12-18T05:49:41;31.83;;;12.97;;
17592;SDS011;8915;51.760;14.300;2022-12-18T05:52:07;34.10;;;13.80;;
17592;SDS011;8915;51.760;14.300;2022-12-18T05:54:34;26.57;;;10.23;;
17592;SDS011;8915;51.760;14.300;2022-12-18T05:57:01;29.13;;;20.83;;
17592;SDS011;8915;51.760;14.300;2022-12-18T05:59:28;29.13;;;12.00;;
17592;SDS011;8915;51.760;14.300;2022-12-18T06:01:55;27.80;;;13.53;;
17592;SDS011;8915;51.760;14.300;2022-12-18T06:04:21;27.30;;;11.37;;
17592;SDS011;8915;51.760;14.300;2022-12-18T06:06:47;27.03;;;13.20;;
17592;SDS011;8915;51.760;14.300;2022-12-18T06:09:14;26.33;;;11.93;;
17592;SDS011;8915;51.760;14.300;2022-12-18T06:11:40;33.17;;;13.33;;
17592;SDS011;8915;51.760;14.300;2022-12-18T06:14:06;29.00;;;14.93;;
17592;SDS011;8915;51.760;14.300;2022-12-18T06:16:34;26.63;;;11.20;;
17592;SDS011;8915;51.760;14.300;2022-12-18T06:19:01;21.27;;;9.60;;
17592;SDS011;8915;51.760;14.300;2022-12-18T06:21:30;27.63;;;11.13;;
17592;SDS011;8915;51.760;14.300;2022-12-18T06:23:57;27.27;;;11.03;;
17592;SDS011;8915;51.760;14.300;2022-12-18T06:26:24;29.10;;;11.53;;
17592;SDS011;8915;51.760;14.300;2022-12-18T06:28:50;29.93;;;11.23;;
17592;SDS011;8915;51.760;14.300;2022-12-18T06:31:16;29.87;;;11.07;;
17592;SDS011;8915;51.760;14.300;2022-12-18T06:33:44;26.93;;;11.57;;
17592;SDS011;8915;51.760;14.300;2022-12-18T06:36:11;26.90;;;9.97;;
17592;SDS011;8915;51.760;14.300;2022-12-18T06:38:39;23.33;;;9.53;;
17592;SDS011;8915;51.760;14.300;2022-12-18T06:41:07;20.97;;;10.20;;
17592;SDS011;8915;51.760;14.300;2022-12-18T06:43:34;28.23;;;11.20;;
17592;SDS011;8915;51.760;14.300;2022-12-18T06:46:01;26.77;;;11.47;;
17592;SDS011;8915;51.760;14.300;2022-12-18T06:48:28;23.00;;;10.70;;
17592;SDS011;8915;51.760;14.300;2022-12-18T06:50:56;20.13;;;9.43;;
17592;SDS011;8915;51.760;14.300;2022-12-18T06:53:23;28.90;;;11.77;;
17592;SDS011;8915;51.760;14.300;2022-12-18T06:55:49;22.50;;;10.60;;
17592;SDS011;8915;51.760;14.300;2022-12-18T06:58:16;22.23;;;10.03;;
17592;SDS011;8915;51.760;14.300;2022-12-18T07:00:43;26.00;;;10.90;;
17592;SDS011;8915;51.760;14.300;2022-12-18T07:03:09;23.53;;;9.70;;
17592;SDS011;8915;51.760;14.300;2022-12-18T07:05:39;21.63;;;9.17;;
17592;SDS011;8915;51.760;14.300;2022-12-18T07:08:07;24.73;;;12.00;;
17592;SDS011;8915;51.760;14.300;2022-12-18T07:10:34;22.80;;;10.70;;
17592;SDS011;8915;51.760;14.300;2022-12-18T07:13:07;24.40;;;10.83;;
17592;SDS011;8915;51.760;14.300;2022-12-18T07:15:33;19.33;;;8.80;;
17592;SDS011;8915;51.760;14.300;2022-12-18T07:17:59;22.97;;;10.80;;
17592;SDS011;8915;51.760;14.300;2022-12-18T07:20:26;30.27;;;10.57;;
17592;SDS011;8915;51.760;14.300;2022-12-18T07:22:52;22.57;;;10.13;;
17592;SDS011;8915;51.760;14.300;2022-12-18T07:25:20;21.63;;;9.83;;
17592;SDS011;8915;51.760;14.300;2022-12-18T07:27:46;23.33;;;9.73;;
17592;SDS011;8915;51.760;14.300;2022-12-18T07:30:12;22.67;;;9.37;;
17592;SDS011;8915;51.760;14.300;2022-12-18T07:32:39;24.77;;;9.67;;
17592;SDS011;8915;51.760;14.300;2022-12-18T07:35:05;20.60;;;10.03;;
17592;SDS011;8915;51.760;14.300;2022-12-18T07:37:32;24.40;;;10.57;;
17592;SDS011;8915;51.760;14.300;2022-12-18T07:39:58;24.00;;;9.97;;
17592;SDS011;8915;51.760;14.300;2022-12-18T07:42:26;17.50;;;9.30;;
17592;SDS011;8915;51.760;14.300;2022-12-18T07:44:59;20.40;;;10.20;;
17592;SDS011;8915;51.760;14.300;2022-12-18T07:47:27;23.30;;;10.87;;
17592;SDS011;8915;51.760;14.300;2022-12-18T07:49:53;26.53;;;11.57;;
17592;SDS011;8915;51.760;14.300;2022-12-18T07:52:20;19.80;;;10.10;;
17592;SDS011;8915;51.760;14.300;2022-12-18T07:54:46;21.90;;;10.60;;
17592;SDS011;8915;51.760;14.300;2022-12-18T07:57:15;27.20;;;10.93;;
17592;SDS011;8915;51.760;14.300;2022-12-18T07:59:43;21.07;;;10.00;;
17592;SDS011;8915;51.760;14.300;2022-12-18T08:02:09;25.50;;;11.37;;
17592;SDS011;8915;51.760;14.300;2022-12-18T08:04:36;22.23;;;10.37;;
17592;SDS011;8915;51.760;14.300;2022-12-18T08:07:02;25.97;;;10.37;;
17592;SDS011;8915;51.760;14.300;2022-12-18T08:09:29;30.47;;;10.93;;
17592;SDS011;8915;51.760;14.300;2022-12-18T08:11:55;21.73;;;10.63;;
17592;SDS011;8915;51.760;14.300;2022-12-18T08:14:21;17.73;;;9.33;;
17592;SDS011;8915;51.760;14.300;2022-12-18T08:16:49;19.03;;;9.50;;
17592;SDS011;8915;51.760;14.300;2022-12-18T08:19:15;20.67;;;11.07;;
17592;SDS011;8915;51.760;14.300;2022-12-18T08:21:42;19.40;;;9.50;;
17592;SDS011;8915;51.760;14.300;2022-12-18T08:24:08;17.17;;;9.67;;
17592;SDS011;8915;51.760;14.300;2022-12-18T08:26:35;21.23;;;10.03;;
17592;SDS011;8915;51.760;14.300;2022-12-18T08:29:01;20.87;;;9.03;;
17592;SDS011;8915;51.760;14.300;2022-12-18T08:31:28;23.27;;;10.37;;
17592;SDS011;8915;51.760;14.300;2022-12-18T08:33:57;24.67;;;10.33;;
17592;SDS011;8915;51.760;14.300;2022-12-18T08:36:24;18.77;;;9.67;;
17592;SDS011;8915;51.760;14.300;2022-12-18T08:38:51;19.20;;;9.63;;
17592;SDS011;8915;51.760;14.300;2022-12-18T08:41:18;20.77;;;9.97;;
17592;SDS011;8915;51.760;14.300;2022-12-18T08:43:45;21.27;;;10.57;;
17592;SDS011;8915;51.760;14.300;2022-12-18T08:46:31;18.87;;;8.77;;
17592;SDS011;8915;51.760;14.300;2022-12-18T08:49:01;20.73;;;9.50;;
17592;SDS011;8915;51.760;14.300;2022-12-18T08:51:27;20.87;;;9.13;;
17592;SDS011;8915;51.760;14.300;2022-12-18T08:53:54;22.77;;;8.13;;
17592;SDS011;8915;51.760;14.300;2022-12-18T08:56:20;17.00;;;8.73;;
17592;SDS011;8915;51.760;14.300;2022-12-18T08:58:46;21.03;;;9.50;;
17592;SDS011;8915;51.760;14.300;2022-12-18T09:01:13;17.90;;;9.00;;
17592;SDS011;8915;51.760;14.300;2022-12-18T09:03:39;18.63;;;8.20;;
17592;SDS011;8915;51.760;14.300;2022-12-18T09:06:07;22.50;;;12.10;;
17592;SDS011;8915;51.760;14.300;2022-12-18T09:08:34;20.97;;;9.93;;
17592;SDS011;8915;51.760;14.300;2022-12-18T09:11:01;36.87;;;15.73;;
17592;SDS011;8915;51.760;14.300;2022-12-18T09:13:28;35.93;;;16.57;;
17592;SDS011;8915;51.760;14.300;2022-12-18T09:15:54;31.63;;;14.67;;
17592;SDS011;8915;51.760;14.300;2022-12-18T09:18:21;21.60;;;10.77;;
17592;SDS011;8915;51.760;14.300;2022-12-18T09:20:49;41.40;;;19.00;;
17592;SDS011;8915;51.760;14.300;2022-12-18T09:23:18;28.93;;;12.23;;
17592;SDS011;8915;51.760;14.300;2022-12-18T09:25:45;19.37;;;9.30;;
17592;SDS011;8915;51.760;14.300;2022-12-18T09:28:15;19.70;;;9.77;;
17592;SDS011;8915;51.760;14.300;2022-12-18T09:30:44;17.83;;;8.83;;
17592;SDS011;8915;51.760;14.300;2022-12-18T09:33:12;14.60;;;8.13;;
17592;SDS011;8915;51.760;14.300;2022-12-18T09:35:38;21.40;;;10.00;;
17592;SDS011;8915;51.760;14.300;2022-12-18T09:38:06;24.17;;;9.87;;
17592;SDS011;8915;51.760;14.300;2022-12-18T09:40:35;27.30;;;11.80;;
17592;SDS011;8915;51.760;14.300;2022-12-18T09:43:05;26.23;;;13.33;;
17592;SDS011;8915;51.760;14.300;2022-12-18T09:45:35;17.93;;;9.53;;
17592;SDS011;8915;51.760;14.300;2022-12-18T09:48:08;21.30;;;10.43;;
17592;SDS011;8915;51.760;14.300;2022-12-18T09:50:40;17.30;;;8.93;;
17592;SDS011;8915;51.760;14.300;2022-12-18T09:53:08;19.13;;;10.27;;
17592;SDS011;8915;51.760;14.300;2022-12-18T09:55:41;23.40;;;10.57;;
17592;SDS011;8915;51.760;14.300;2022-12-18T09:58:13;19.80;;;9.23;;
17592;SDS011;8915;51.760;14.300;2022-12-18T10:00:44;21.03;;;8.90;;
17592;SDS011;8915;51.760;14.300;2022-12-18T10:03:12;17.40;;;9.17;;
17592;SDS011;8915;51.760;14.300;2022-12-18T10:05:41;19.57;;;8.77;;
17592;SDS011;8915;51.760;14.300;2022-12-18T10:08:13;15.57;;;9.03;;
17592;SDS011;8915;51.760;14.300;2022-12-18T10:10:48;24.37;;;12.40;;
17592;SDS011;8915;51.760;14.300;2022-12-18T10:13:20;16.57;;;8.83;;
17592;SDS011;8915;51.760;14.300;2022-12-18T10:18:50;21.73;;;10.07;;
17592;SDS011;8915;51.760;14.300;2022-12-18T10:21:30;19.50;;;10.47;;
17592;SDS011;8915;51.760;14.300;2022-12-18T10:24:02;17.77;;;9.40;;
17592;SDS011;8915;51.760;14.300;2022-12-18T10:26:39;23.73;;;10.63;;
17592;SDS011;8915;51.760;14.300;2022-12-18T10:29:08;15.90;;;8.73;;
17592;SDS011;8915;51.760;14.300;2022-12-18T10:31:37;29.23;;;11.00;;
17592;SDS011;8915;51.760;14.300;2022-12-18T10:34:04;21.33;;;10.03;;
17592;SDS011;8915;51.760;14.300;2022-12-18T10:36:30;23.10;;;10.47;;
17592;SDS011;8915;51.760;14.300;2022-12-18T10:38:58;22.07;;;11.00;;
17592;SDS011;8915;51.760;14.300;2022-12-18T10:41:42;17.60;;;8.77;;
17592;SDS011;8915;51.760;14.300;2022-12-18T10:44:14;14.97;;;7.67;;
17592;SDS011;8915;51.760;14.300;2022-12-18T10:46:43;19.83;;;9.80;;
17592;SDS011;8915;51.760;14.300;2022-12-18T10:49:18;17.47;;;8.77;;
17592;SDS011;8915;51.760;14.300;2022-12-18T10:51:47;15.07;;;8.20;;
17592;SDS011;8915;51.760;14.300;2022-12-18T10:54:14;17.03;;;8.33;;
17592;SDS011;8915;51.760;14.300;2022-12-18T10:56:44;19.07;;;8.70;;
17592;SDS011;8915;51.760;14.300;2022-12-18T10:59:11;14.70;;;8.27;;
17592;SDS011;8915;51.760;14.300;2022-12-18T11:01:47;18.60;;;9.17;;
17592;SDS011;8915;51.760;14.300;2022-12-18T11:04:17;13.33;;;7.67;;
17592;SDS011;8915;51.760;14.300;2022-12-18T11:06:52;14.80;;;8.13;;
17592;SDS011;8915;51.760;14.300;2022-12-18T11:09:22;11.67;;;7.07;;
17592;SDS011;8915;51.760;14.300;2022-12-18T11:11:51;13.20;;;7.17;;
17592;SDS011;8915;51.760;14.300;2022-12-18T11:14:21;20.53;;;8.67;;
17592;SDS011;8915;51.760;14.300;2022-12-18T11:16:49;13.93;;;8.23;;
17592;SDS011;8915;51.760;14.300;2022-12-18T11:19:28;16.30;;;8.33;;
17592;SDS011;8915;51.760;14.300;2022-12-18T11:21:58;17.30;;;8.47;;
17592;SDS011;8915;51.760;14.300;2022-12-18T11:24:27;15.37;;;8.73;;
17592;SDS011;8915;51.760;14.300;2022-12-18T11:26:57;18.33;;;9.03;;
17592;SDS011;8915;51.760;14.300;2022-12-18T11:29:30;15.67;;;8.53;;
17592;SDS011;8915;51.760;14.300;2022-12-18T11:32:12;14.33;;;8.00;;
17592;SDS011;8915;51.760;14.300;2022-12-18T11:35:02;16.77;;;9.37;;
17592;SDS011;8915;51.760;14.300;2022-12-18T11:37:34;20.03;;;8.17;;
17592;SDS011;8915;51.760;14.300;2022-12-18T11:40:03;16.27;;;8.07;;
17592;SDS011;8915;51.760;14.300;2022-12-18T11:42:39;18.47;;;9.37;;
17592;SDS011;8915;51.760;14.300;2022-12-18T11:45:20;15.53;;;8.07;;
17592;SDS011;8915;51.760;14.300;2022-12-18T11:47:52;21.03;;;8.17;;
17592;SDS011;8915;51.760;14.300;2022-12-18T11:50:24;13.37;;;8.10;;
17592;SDS011;8915;51.760;14.300;2022-12-18T11:52:54;14.63;;;7.90;;
17592;SDS011;8915;51.760;14.300;2022-12-18T11:55:23;14.63;;;7.97;;
17592;SDS011;8915;51.760;14.300;2022-12-18T11:57:59;14.17;;;7.90;;
17592;SDS011;8915;51.760;14.300;2022-12-18T12:00:35;14.47;;;7.67;;
17592;SDS011;8915;51.760;14.300;2022-12-18T12:03:17;13.00;;;7.33;;
17592;SDS011;8915;51.760;14.300;2022-12-18T12:05:56;15.40;;;8.00;;
17592;SDS011;8915;51.760;14.300;2022-12-18T12:08:35;13.50;;;7.90;;
17592;SDS011;8915;51.760;14.300;2022-12-18T12:11:20;14.90;;;8.00;;
17592;SDS011;8915;51.760;14.300;2022-12-18T12:13:59;15.70;;;8.17;;
17592;SDS011;8915;51.760;14.300;2022-12-18T12:16:34;14.20;;;7.37;;
17592;SDS011;8915;51.760;14.300;2022-12-18T12:19:13;14.73;;;8.87;;
17592;SDS011;8915;51.760;14.300;2022-12-18T12:21:54;13.33;;;7.67;;
17592;SDS011;8915;51.760;14.300;2022-12-18T12:24:29;19.47;;;8.93;;
17592;SDS011;8915;51.760;14.300;2022-12-18T12:27:06;13.97;;;7.53;;
17592;SDS011;8915;51.760;14.300;2022-12-18T12:29:46;21.20;;;9.97;;
17592;SDS011;8915;51.760;14.300;2022-12-18T12:32:28;21.33;;;12.37;;
17592;SDS011;8915;51.760;14.300;2022-12-18T12:35:12;15.43;;;9.33;;
17592;SDS011;8915;51.760;14.300;2022-12-18T12:37:49;20.13;;;10.30;;
17592;SDS011;8915;51.760;14.300;2022-12-18T12:40:27;19.93;;;10.87;;
17592;SDS011;8915;51.760;14.300;2022-12-18T12:42:56;18.87;;;9.50;;
17592;SDS011;8915;51.760;14.300;2022-12-18T12:45:42;17.93;;;9.77;;
17592;SDS011;8915;51.760;14.300;2022-12-18T12:48:15;19.77;;;9.43;;
17592;SDS011;8915;51.760;14.300;2022-12-18T12:50:44;19.70;;;9.03;;
17592;SDS011;8915;51.760;14.300;2022-12-18T12:53:15;15.43;;;8.80;;
17592;SDS011;8915;51.760;14.300;2022-12-18T12:55:48;22.53;;;9.17;;
17592;SDS011;8915;51.760;14.300;2022-12-18T12:58:16;16.57;;;9.17;;
17592;SDS011;8915;51.760;14.300;2022-12-18T13:00:49;14.83;;;8.37;;
17592;SDS011;8915;51.760;14.300;2022-12-18T13:03:29;17.60;;;8.73;;
17592;SDS011;8915;51.760;14.300;2022-12-18T13:06:08;18.37;;;9.23;;
17592;SDS011;8915;51.760;14.300;2022-12-18T13:08:51;15.37;;;8.07;;
17592;SDS011;8915;51.760;14.300;2022-12-18T13:11:28;17.97;;;8.60;;
17592;SDS011;8915;51.760;14.300;2022-12-18T13:14:20;16.63;;;8.60;;
17592;SDS011;8915;51.760;14.300;2022-12-18T13:16:49;15.57;;;8.93;;
17592;SDS011;8915;51.760;14.300;2022-12-18T13:19:21;19.20;;;10.43;;
17592;SDS011;8915;51.760;14.300;2022-12-18T13:21:52;19.43;;;8.83;;
17592;SDS011;8915;51.760;14.300;2022-12-18T13:24:23;14.10;;;6.83;;
17592;SDS011;8915;51.760;14.300;2022-12-18T13:26:51;19.57;;;9.00;;
17592;SDS011;8915;51.760;14.300;2022-12-18T13:32:23;20.33;;;9.90;;
17592;SDS011;8915;51.760;14.300;2022-12-18T13:37:52;19.00;;;9.93;;
17592;SDS011;8915;51.760;14.300;2022-12-18T13:43:22;16.10;;;8.77;;
17592;SDS011;8915;51.760;14.300;2022-12-18T13:45:59;15.90;;;9.07;;
17592;SDS011;8915;51.760;14.300;2022-12-18T13:48:47;18.77;;;10.13;;
17592;SDS011;8915;51.760;14.300;2022-12-18T13:51:17;14.63;;;9.00;;
17592;SDS011;8915;51.760;14.300;2022-12-18T13:53:46;20.97;;;10.27;;
17592;SDS011;8915;51.760;14.300;2022-12-18T13:56:16;19.87;;;9.27;;
17592;SDS011;8915;51.760;14.300;2022-12-18T13:59:02;16.77;;;9.47;;
17592;SDS011;8915;51.760;14.300;2022-12-18T14:01:36;19.10;;;10.47;;
17592;SDS011;8915;51.760;14.300;2022-12-18T14:04:09;17.67;;;10.07;;
17592;SDS011;8915;51.760;14.300;2022-12-18T14:06:36;17.37;;;9.57;;
17592;SDS011;8915;51.760;14.300;2022-12-18T14:09:03;19.03;;;10.00;;
17592;SDS011;8915;51.760;14.300;2022-12-18T14:11:29;20.13;;;9.63;;
17592;SDS011;8915;51.760;14.300;2022-12-18T14:13:56;19.20;;;10.30;;
17592;SDS011;8915;51.760;14.300;2022-12-18T14:16:23;16.50;;;9.13;;
17592;SDS011;8915;51.760;14.300;2022-12-18T14:18:50;25.10;;;12.00;;
17592;SDS011;8915;51.760;14.300;2022-12-18T14:21:22;16.20;;;10.77;;
17592;SDS011;8915;51.760;14.300;2022-12-18T14:24:02;16.40;;;9.13;;
17592;SDS011;8915;51.760;14.300;2022-12-18T14:26:30;16.93;;;9.00;;
17592;SDS011;8915;51.760;14.300;2022-12-18T14:28:58;21.57;;;11.90;;
17592;SDS011;8915;51.760;14.300;2022-12-18T14:31:28;19.27;;;11.37;;
17592;SDS011;8915;51.760;14.300;2022-12-18T14:33:55;21.83;;;9.93;;
17592;SDS011;8915;51.760;14.300;2022-12-18T14:36:23;20.90;;;10.07;;
17592;SDS011;8915;51.760;14.300;2022-12-18T14:38:52;26.10;;;11.60;;
17592;SDS011;8915;51.760;14.300;2022-12-18T14:41:20;25.27;;;13.80;;
17592;SDS011;8915;51.760;14.300;2022-12-18T14:43:48;47.50;;;29.67;;
17592;SDS011;8915;51.760;14.300;2022-12-18T14:49:02;21.67;;;12.73;;
17592;SDS011;8915;51.760;14.300;2022-12-18T14:51:32;20.53;;;11.50;;
17592;SDS011;8915;51.760;14.300;2022-12-18T14:53:59;29.60;;;14.63;;
17592;SDS011;8915;51.760;14.300;2022-12-18T14:56:28;23.07;;;10.93;;
17592;SDS011;8915;51.760;14.300;2022-12-18T14:58:57;45.83;;;24.07;;
17592;SDS011;8915;51.760;14.300;2022-12-18T15:01:27;105.47;;;48.90;;